Terminal Aerodrome Forecast
Issued by NWS Jackson, KY

Home | Current Version | Previous Version | Text Only | Print | Product List | Glossary Off
Versions: 1 2 3 4 5 6 7 8 9 10 11 12 13

483
FTUS43 KJKL 281129
TAFJKL
TAF
KJKL 281129Z 2812/2912 VRB04KT P6SM BKN250
     FM281600 19008KT P6SM SCT120 BKN250
     FM282300 16003KT P6SM BKN050 OVC080=

USA.gov is the U.S. government's official web portal to all federal, state and local government web resources and services.